createdAt,value
2023-04-02T00:00:17.588Z,2.27
2023-04-02T00:03:23.291Z,1.90
2023-04-02T00:06:34.488Z,2.70
2023-04-02T00:09:37.910Z,2.85
2023-04-02T00:12:40.794Z,2.05
2023-04-02T00:15:46.632Z,2.07
2023-04-02T00:18:55.589Z,2.20
2023-04-02T00:21:59.573Z,1.90
2023-04-02T00:25:08.593Z,2.38
2023-04-02T00:28:20.674Z,2.92
2023-04-02T00:31:23.709Z,2.20
2023-04-02T00:34:28.176Z,2.87
2023-04-02T00:37:39.135Z,3.50
2023-04-02T00:40:42.594Z,2.47
2023-04-02T00:43:54.772Z,2.78
2023-04-02T00:46:58.539Z,2.50
2023-04-02T00:50:26.066Z,2.43
2023-04-02T00:53:30.837Z,2.20
2023-04-02T00:56:42.768Z,2.22
2023-04-02T00:59:56.958Z,2.00
2023-04-02T01:03:18.091Z,1.90
2023-04-02T01:06:22.320Z,1.93
2023-04-02T01:09:27.900Z,1.88
2023-04-02T01:12:46.120Z,2.20
2023-04-02T01:16:10.051Z,2.25
2023-04-02T01:19:37.522Z,1.93
2023-04-02T01:22:48.148Z,3.50
2023-04-02T01:26:12.628Z,1.90
2023-04-02T01:29:24.216Z,1.83
2023-04-02T01:32:29.209Z,1.60
2023-04-02T01:35:36.705Z,2.50
2023-04-02T01:38:46.196Z,2.10
2023-04-02T01:42:02.551Z,1.90
2023-04-02T01:45:31.399Z,1.90
2023-04-02T01:48:34.083Z,2.03
2023-04-02T01:51:42.116Z,1.83
2023-04-02T01:54:47.550Z,1.60
2023-04-02T01:57:53.142Z,2.80
2023-04-02T02:01:09.804Z,2.80
2023-04-02T02:04:14.096Z,2.15
2023-04-02T02:07:19.716Z,2.10
2023-04-02T02:10:30.207Z,2.73
2023-04-02T02:13:35.479Z,3.30
2023-04-02T02:16:42.386Z,1.67
2023-04-02T02:19:51.645Z,4.05
2023-04-02T02:23:02.185Z,3.07
2023-04-02T02:26:06.742Z,2.43
2023-04-02T02:29:12.375Z,2.83
2023-04-02T02:32:16.738Z,2.28
2023-04-02T02:35:39.314Z,2.28
2023-04-02T02:39:09.213Z,2.43
2023-04-02T02:42:29.011Z,1.80
2023-04-02T02:45:37.869Z,1.98
2023-04-02T02:48:42.330Z,1.80
2023-04-02T02:51:57.784Z,1.80
2023-04-02T02:55:18.970Z,1.70
2023-04-02T02:58:32.132Z,2.33
2023-04-02T03:01:59.360Z,1.88
2023-04-02T03:05:03.158Z,2.72
2023-04-02T03:08:12.086Z,3.00
2023-04-02T03:11:24.127Z,2.00
2023-04-02T03:14:40.411Z,2.00
2023-04-02T03:17:57.968Z,1.70
2023-04-02T03:21:33.095Z,3.15
2023-04-02T03:24:47.445Z,1.90
2023-04-02T03:27:54.154Z,3.83
2023-04-02T03:31:18.282Z,2.20
2023-04-02T03:34:29.813Z,2.38
2023-04-02T03:37:45.717Z,2.88
2023-04-02T03:40:54.659Z,2.55
2023-04-02T03:44:01.246Z,3.60
2023-04-02T03:47:32.005Z,6.70
2023-04-02T03:51:07.998Z,2.72
2023-04-02T03:54:17.532Z,5.28
2023-04-02T03:57:38.904Z,5.95
2023-04-02T04:00:50.396Z,6.03
2023-04-02T04:04:09.791Z,3.50
2023-04-02T04:07:40.984Z,2.65
2023-04-02T04:10:52.957Z,1.80
2023-04-02T04:14:10.258Z,2.10
2023-04-02T04:17:17.705Z,3.93
2023-04-02T04:20:28.246Z,2.33
2023-04-02T04:23:50.221Z,4.53
2023-04-02T04:27:18.563Z,6.32
2023-04-02T04:30:50.434Z,2.92
2023-04-02T04:34:03.293Z,3.70
2023-04-02T04:37:10.229Z,5.77
2023-04-02T04:40:24.539Z,2.63
2023-04-02T04:43:57.071Z,8.52
2023-04-02T04:47:12.987Z,3.13
2023-04-02T04:50:22.968Z,2.10
2023-04-02T04:53:31.129Z,2.90
2023-04-02T04:56:35.192Z,2.90
2023-04-02T05:00:17.493Z,5.05
2023-04-02T05:03:45.041Z,2.33
2023-04-02T05:07:19.538Z,2.87
2023-04-02T05:10:40.674Z,2.60
2023-04-02T05:13:59.271Z,2.15
2023-04-02T05:17:11.554Z,5.43
2023-04-02T05:20:24.984Z,2.65
2023-04-02T05:23:37.598Z,2.40
2023-04-02T05:26:46.820Z,2.33
2023-04-02T05:29:56.210Z,3.72
2023-04-02T05:33:30.486Z,3.60
2023-04-02T05:36:37.193Z,4.47
2023-04-02T05:39:44.518Z,3.10
2023-04-02T05:42:53.638Z,3.13
2023-04-02T05:46:02.741Z,2.72
2023-04-02T05:49:09.072Z,2.38
2023-04-02T05:52:16.292Z,3.15
2023-04-02T05:55:34.658Z,2.30
2023-04-02T05:58:44.054Z,2.30
2023-04-02T06:02:05.245Z,2.25
2023-04-02T06:05:27.373Z,2.95
2023-04-02T06:08:45.827Z,2.47
2023-04-02T06:12:14.338Z,2.40
2023-04-02T06:15:21.488Z,3.30
2023-04-02T06:18:32.897Z,2.95
2023-04-02T06:21:35.564Z,2.30
2023-04-02T06:24:40.624Z,2.17
2023-04-02T06:27:45.720Z,2.60
2023-04-02T06:30:52.817Z,3.27
2023-04-02T06:33:56.828Z,3.30
2023-04-02T06:37:07.686Z,2.33
2023-04-02T06:40:37.352Z,5.70
2023-04-02T06:43:56.146Z,2.60
2023-04-02T06:47:34.405Z,3.40
2023-04-02T06:50:56.733Z,3.35
2023-04-02T06:53:59.605Z,3.90
2023-04-02T06:57:02.591Z,3.85
2023-04-02T07:00:23.712Z,3.67
2023-04-02T07:03:30.208Z,2.67
2023-04-02T07:06:36.389Z,2.55
2023-04-02T07:09:40.702Z,2.78
2023-04-02T07:12:45.115Z,3.35
2023-04-02T07:15:53.909Z,3.53
2023-04-02T07:19:00.755Z,3.53
2023-04-02T07:22:06.475Z,2.90
2023-04-02T07:25:13.961Z,4.43
2023-04-02T07:28:16.955Z,4.07
2023-04-02T07:31:25.884Z,2.50
2023-04-02T07:34:28.682Z,3.87
2023-04-02T07:37:31.759Z,2.63
2023-04-02T07:40:34.499Z,2.90
2023-04-02T07:43:40.744Z,5.45
2023-04-02T07:46:43.381Z,3.10
2023-04-02T07:50:10.710Z,2.30
2023-04-02T07:53:33.915Z,3.60
2023-04-02T07:56:37.374Z,2.40
2023-04-02T07:59:42.297Z,2.92
2023-04-02T08:02:45.590Z,2.50
2023-04-02T08:05:56.448Z,3.05
2023-04-02T08:08:59.380Z,2.73
2023-04-02T08:12:01.982Z,2.30
2023-04-02T08:15:07.066Z,3.58
2023-04-02T08:18:10.762Z,2.25
2023-04-02T08:21:16.355Z,5.28
2023-04-02T08:24:19.771Z,5.77
2023-04-02T08:27:28.948Z,2.00
2023-04-02T08:30:31.607Z,5.50
2023-04-02T08:33:34.316Z,5.38
2023-04-02T08:36:38.733Z,2.25
2023-04-02T08:39:41.688Z,2.93
2023-04-02T08:42:58.815Z,2.53
2023-04-02T08:46:04.337Z,2.70
2023-04-02T08:49:16.725Z,2.25
2023-04-02T08:52:31.104Z,2.78
2023-04-02T08:56:05.772Z,3.00
2023-04-02T08:59:14.677Z,3.38
2023-04-02T09:02:52.140Z,3.85
2023-04-02T09:05:55.572Z,2.50
2023-04-02T09:08:59.110Z,2.22
2023-04-02T09:12:05.744Z,3.10
2023-04-02T09:15:11.173Z,3.67
2023-04-02T09:18:19.236Z,2.72
2023-04-02T09:21:22.038Z,2.78
2023-04-02T09:24:24.623Z,2.47
2023-04-02T09:27:32.687Z,5.40
2023-04-02T09:31:07.039Z,2.42
2023-04-02T09:34:32.491Z,3.13
2023-04-02T09:37:35.118Z,2.85
2023-04-02T09:40:43.187Z,4.68
2023-04-02T09:43:45.808Z,3.23
2023-04-02T09:47:06.466Z,3.38
2023-04-02T09:50:25.736Z,2.83
2023-04-02T09:53:30.910Z,3.30
2023-04-02T09:56:37.025Z,3.38
2023-04-02T09:59:39.692Z,4.23
2023-04-02T10:02:43.343Z,6.07
2023-04-02T10:05:47.519Z,3.67
2023-04-02T10:08:50.316Z,3.10
2023-04-02T10:11:54.660Z,4.10
2023-04-02T10:14:58.391Z,2.23
2023-04-02T10:18:30.370Z,2.47
2023-04-02T10:21:35.984Z,4.47
2023-04-02T10:24:40.391Z,5.15
2023-04-02T10:28:03.994Z,6.28
2023-04-02T10:31:39.026Z,11.60
2023-04-02T10:35:03.664Z,6.97
2023-04-02T10:38:31.624Z,4.57
2023-04-02T10:42:17.908Z,4.93
2023-04-02T10:45:25.648Z,9.77
2023-04-02T10:48:44.558Z,5.03
2023-04-02T10:51:59.646Z,4.95
2023-04-02T10:55:14.393Z,5.30
2023-04-02T10:58:26.433Z,3.20
2023-04-02T11:01:32.789Z,2.65
2023-04-02T11:04:47.093Z,4.07
2023-04-02T11:08:03.833Z,3.75
2023-04-02T11:11:27.664Z,3.33
2023-04-02T11:14:31.906Z,3.25
2023-04-02T11:17:34.714Z,3.00
2023-04-02T11:20:50.376Z,2.67
2023-04-02T11:24:01.759Z,2.58
2023-04-02T11:27:10.558Z,2.80
2023-04-02T11:30:16.069Z,4.97
2023-04-02T11:33:44.593Z,4.85
2023-04-02T11:36:54.459Z,4.80
2023-04-02T11:39:59.378Z,3.47
2023-04-02T11:43:32.947Z,4.50
2023-04-02T11:46:45.632Z,2.65
2023-04-02T11:50:06.143Z,3.55
2023-04-02T11:53:12.099Z,4.00
2023-04-02T11:56:44.769Z,2.78
2023-04-02T11:59:51.037Z,4.97
2023-04-02T12:03:16.493Z,3.25
2023-04-02T12:06:34.061Z,4.38
2023-04-02T12:09:45.635Z,3.73
2023-04-02T12:12:51.555Z,4.35
2023-04-02T12:15:58.036Z,4.30
2023-04-02T12:19:01.298Z,2.80
2023-04-02T12:22:04.036Z,3.40
2023-04-02T12:25:29.597Z,3.63
2023-04-02T12:28:34.052Z,4.03
2023-04-02T12:31:36.849Z,2.67
2023-04-02T12:34:46.233Z,2.22
2023-04-02T12:37:53.097Z,2.28
2023-04-02T12:41:01.504Z,2.00
2023-04-02T12:44:06.741Z,3.40
2023-04-02T12:47:13.405Z,3.00
2023-04-02T12:50:17.333Z,2.72
2023-04-02T12:53:32.716Z,4.70
2023-04-02T12:56:35.756Z,3.13
2023-04-02T12:59:39.273Z,3.80
2023-04-02T13:02:46.697Z,2.60
2023-04-02T13:05:57.492Z,3.17
2023-04-02T13:09:08.280Z,3.38
2023-04-02T13:12:24.558Z,2.60
2023-04-02T13:15:34.693Z,3.25
2023-04-02T13:18:38.513Z,2.47
2023-04-02T13:21:44.146Z,2.65
2023-04-02T13:24:49.654Z,3.05
2023-04-02T13:27:53.929Z,2.60
2023-04-02T13:30:56.557Z,2.95
2023-04-02T13:33:59.512Z,2.67
2023-04-02T13:37:11.250Z,3.97
2023-04-02T13:40:16.396Z,4.57
2023-04-02T13:43:23.170Z,4.70
2023-04-02T13:46:36.420Z,8.68
2023-04-02T13:49:39.053Z,5.32
2023-04-02T13:52:41.697Z,2.70
2023-04-02T13:55:45.479Z,4.03
2023-04-02T13:58:48.667Z,4.83
2023-04-02T14:01:53.914Z,3.88
2023-04-02T14:05:19.636Z,5.70
2023-04-02T14:08:22.128Z,4.50
2023-04-02T14:11:37.435Z,5.18
2023-04-02T14:14:59.477Z,4.57
2023-04-02T14:18:23.697Z,4.32
2023-04-02T14:21:54.717Z,3.20
2023-04-02T14:25:25.604Z,3.00
2023-04-02T14:28:40.217Z,4.45
2023-04-02T14:32:15.185Z,3.63
2023-04-02T14:35:36.447Z,3.58
2023-04-02T14:39:09.529Z,3.58
2023-04-02T14:42:18.491Z,4.47
2023-04-02T14:45:43.199Z,7.80
2023-04-02T14:49:07.267Z,7.40
2023-04-02T14:52:17.122Z,4.28
2023-04-02T14:55:47.307Z,5.63
2023-04-02T14:58:54.539Z,3.25
2023-04-02T15:02:04.648Z,4.15
2023-04-02T15:05:43.784Z,4.50
2023-04-02T15:09:08.417Z,4.45
2023-04-02T15:12:28.977Z,3.85
2023-04-02T15:15:55.936Z,4.05
2023-04-02T15:19:03.370Z,3.00
2023-04-02T15:22:17.899Z,3.97
2023-04-02T15:25:31.919Z,3.53
2023-04-02T15:29:22.171Z,3.15
2023-04-02T15:32:34.510Z,3.55
2023-04-02T15:35:50.659Z,3.78
2023-04-02T15:39:12.948Z,4.60
2023-04-02T15:42:35.536Z,4.55
2023-04-02T15:45:53.421Z,4.95
2023-04-02T15:49:38.173Z,4.07
2023-04-02T15:52:55.497Z,4.30
2023-04-02T15:56:08.744Z,3.73
2023-04-02T15:59:11.654Z,3.35
2023-04-02T16:02:48.988Z,4.63
2023-04-02T16:06:17.278Z,3.03
2023-04-02T16:09:39.063Z,3.28
2023-04-02T16:12:42.620Z,3.23
2023-04-02T16:16:02.366Z,3.38
2023-04-02T16:19:35.354Z,3.25
2023-04-02T16:22:49.775Z,3.30
2023-04-02T16:26:12.973Z,4.15
2023-04-02T16:29:25.973Z,5.30
2023-04-02T16:32:56.309Z,7.05
2023-04-02T16:36:17.820Z,4.43
2023-04-02T16:39:29.328Z,4.72
2023-04-02T16:42:45.977Z,4.88
2023-04-02T16:46:11.928Z,4.73
2023-04-02T16:49:37.342Z,5.15
2023-04-02T16:52:53.863Z,6.20
2023-04-02T16:56:16.889Z,8.65
2023-04-02T17:00:04.050Z,5.43
2023-04-02T17:03:37.554Z,8.47
2023-04-02T17:06:42.754Z,6.47
2023-04-02T17:09:54.044Z,12.65
2023-04-02T17:13:19.611Z,7.40
2023-04-02T17:16:28.036Z,7.22
2023-04-02T17:19:32.494Z,9.53
2023-04-02T17:22:36.181Z,7.85
2023-04-02T17:25:54.276Z,9.90
2023-04-02T17:29:01.626Z,9.05
2023-04-02T17:32:06.926Z,7.88
2023-04-02T17:35:18.859Z,6.87
2023-04-02T17:38:39.737Z,6.50
2023-04-02T17:42:16.253Z,7.72
2023-04-02T17:45:52.429Z,8.18
2023-04-02T17:49:02.386Z,8.10
2023-04-02T17:52:30.968Z,10.33
2023-04-02T17:55:55.230Z,10.88
2023-04-02T17:59:23.813Z,11.52
2023-04-02T18:02:45.557Z,10.65
2023-04-02T18:06:03.252Z,9.57
2023-04-02T18:09:41.514Z,10.30
2023-04-02T18:13:22.641Z,8.15
2023-04-02T18:16:49.519Z,10.15
2023-04-02T18:20:16.561Z,10.50
2023-04-02T18:23:48.526Z,7.85
2023-04-02T18:27:16.397Z,7.93
2023-04-02T18:30:25.347Z,9.07
2023-04-02T18:33:51.031Z,8.40
2023-04-02T18:37:35.250Z,9.90
2023-04-02T18:40:55.903Z,10.40
2023-04-02T18:44:24.136Z,11.37
2023-04-02T18:47:46.667Z,13.00
2023-04-02T18:50:49.628Z,9.23
2023-04-02T18:54:12.595Z,9.00
2023-04-02T18:57:27.428Z,9.38
2023-04-02T19:00:39.783Z,7.37
2023-04-02T19:03:55.446Z,9.13
2023-04-02T19:07:12.432Z,13.73
2023-04-02T19:10:35.748Z,10.82
2023-04-02T19:13:39.137Z,9.38
2023-04-02T19:16:50.691Z,7.83
2023-04-02T19:19:59.113Z,10.65
2023-04-02T19:23:26.251Z,11.07
2023-04-02T19:27:07.709Z,12.70
2023-04-02T19:30:48.336Z,10.85
2023-04-02T19:34:03.254Z,9.80
2023-04-02T19:37:22.120Z,10.63
2023-04-02T19:40:29.696Z,12.05
2023-04-02T19:43:32.657Z,9.63
2023-04-02T19:46:41.242Z,11.40
2023-04-02T19:49:44.266Z,10.60
2023-04-02T19:52:47.122Z,11.05
2023-04-02T19:55:49.828Z,8.02
2023-04-02T19:58:52.549Z,10.57
2023-04-02T20:01:55.309Z,14.80
2023-04-02T20:04:58.141Z,12.20
2023-04-02T20:08:03.886Z,11.25
2023-04-02T20:11:12.362Z,9.32
2023-04-02T20:14:18.049Z,12.25
2023-04-02T20:17:21.062Z,11.63
2023-04-02T20:20:23.924Z,10.23
2023-04-02T20:23:26.561Z,12.10
2023-04-02T20:26:30.111Z,8.90
2023-04-02T20:29:33.091Z,9.73
2023-04-02T20:32:38.475Z,9.15
2023-04-02T20:35:41.655Z,10.60
2023-04-02T20:38:45.911Z,11.32
2023-04-02T20:41:48.577Z,9.27
2023-04-02T20:44:51.573Z,10.38
2023-04-02T20:47:54.478Z,10.68
2023-04-02T20:50:57.622Z,10.70
2023-04-02T20:54:20.224Z,11.35
2023-04-02T20:57:27.678Z,10.15
2023-04-02T21:00:30.362Z,9.85
2023-04-02T21:03:36.072Z,11.85
2023-04-02T21:06:40.507Z,12.80
2023-04-02T21:09:45.855Z,9.50
2023-04-02T21:12:49.535Z,11.98
2023-04-02T21:15:52.076Z,10.85
2023-04-02T21:18:58.573Z,10.18
2023-04-02T21:22:01.150Z,11.53
2023-04-02T21:25:03.783Z,8.65
2023-04-02T21:28:06.584Z,12.02
2023-04-02T21:31:20.676Z,10.18
2023-04-02T21:34:23.242Z,10.63
2023-04-02T21:37:25.849Z,12.60
2023-04-02T21:40:28.433Z,10.50
2023-04-02T21:43:30.955Z,10.27
2023-04-02T21:46:39.190Z,9.65
2023-04-02T21:49:41.731Z,12.50
2023-04-02T21:52:46.918Z,11.73
2023-04-02T21:55:49.545Z,12.60
2023-04-02T21:58:52.676Z,10.88
2023-04-02T22:01:55.596Z,11.82
2023-04-02T22:04:58.308Z,10.73
2023-04-02T22:08:00.857Z,10.07
2023-04-02T22:11:12.315Z,9.23
2023-04-02T22:14:17.568Z,11.95
2023-04-02T22:17:20.203Z,7.78
2023-04-02T22:20:22.836Z,9.98
2023-04-02T22:23:26.816Z,9.37
2023-04-02T22:26:30.401Z,10.45
2023-04-02T22:29:34.899Z,9.45
2023-04-02T22:32:37.581Z,9.48
2023-04-02T22:35:42.864Z,8.48
2023-04-02T22:38:45.817Z,8.83
2023-04-02T22:41:48.341Z,8.77
2023-04-02T22:44:58.391Z,9.68
2023-04-02T22:48:06.157Z,10.60
2023-04-02T22:51:09.832Z,7.47
2023-04-02T22:54:12.545Z,8.07
2023-04-02T22:57:15.109Z,8.95
2023-04-02T23:00:21.539Z,9.55
2023-04-02T23:03:24.011Z,9.65
2023-04-02T23:06:27.148Z,10.82
2023-04-02T23:09:32.121Z,10.80
2023-04-02T23:12:34.708Z,9.02
2023-04-02T23:15:37.339Z,10.95
2023-04-02T23:18:41.352Z,9.30
2023-04-02T23:21:44.079Z,10.25
2023-04-02T23:24:46.717Z,8.03
2023-04-02T23:27:49.308Z,10.68
2023-04-02T23:30:52.496Z,8.38
2023-04-02T23:33:55.053Z,11.35
2023-04-02T23:36:57.663Z,7.28
2023-04-02T23:40:00.570Z,7.43
2023-04-02T23:43:03.359Z,7.80
2023-04-02T23:46:10.080Z,7.28
2023-04-02T23:49:13.280Z,8.30
2023-04-02T23:52:16.160Z,8.43
2023-04-02T23:55:21.903Z,9.63
2023-04-02T23:58:24.555Z,8.35
